Time;durP1;ratioP1;P1;durP2;ratioP2;P2;SDS_P1;SDS_P2;PMS_P1;PMS_P2;Temp;Humidity;BMP_temperature;BMP_pressure;BME280_temperature;BME280_humidity;BME280_pressure;Samples;Min_cycle;Max_cycle;Signal;HPM_P1;HPM_P2
2021/03/23 00:01:17;;;;;;;1.40;0.80;;;;;;;-140.79;100.00;63287.88;4977164;28;20037;-72
2021/03/23 00:03:44;;;;;;;1.52;0.70;;;;;;;-140.79;100.00;63287.88;4989227;28;20054;-74
2021/03/23 00:06:12;;;;;;;1.70;0.90;;;;;;;-140.79;100.00;63287.88;4955793;28;20064;-70
2021/03/23 00:08:48;;;;;;;1.33;0.80;;;;;;;-140.79;100.00;63287.88;4971464;28;20038;-71
2021/03/23 00:11:16;;;;;;;1.73;0.90;;;;;;;-140.79;100.00;63287.88;4971690;28;20030;-72
2021/03/23 00:13:43;;;;;;;1.40;0.70;;;;;;;-140.79;100.00;63287.88;4971495;28;20061;-71
2021/03/23 00:16:10;;;;;;;1.17;0.80;;;;;;;-140.79;100.00;63287.88;4971636;28;20454;-71
2021/03/23 00:18:36;;;;;;;1.58;0.90;;;;;;;-140.79;100.00;63287.88;4989211;28;20081;-71
2021/03/23 00:21:01;;;;;;;1.73;0.80;;;;;;;-140.79;100.00;63287.88;4971476;28;20442;-70
2021/03/23 00:23:27;;;;;;;1.17;0.75;;;;;;;-140.79;100.00;63287.88;4989062;28;20030;-71
2021/03/23 00:25:52;;;;;;;1.40;0.80;;;;;;;-140.79;100.00;63287.88;4988811;28;20023;-72
2021/03/23 00:28:20;;;;;;;1.55;0.90;;;;;;;-140.79;100.00;63287.88;4971497;28;20031;-71
2021/03/23 00:30:45;;;;;;;1.15;0.70;;;;;;;-140.79;100.00;63287.88;4971845;28;20073;-71
2021/03/23 00:33:11;;;;;;;1.30;0.70;;;;;;;-140.79;100.00;63287.88;4988576;28;20022;-73
2021/03/23 00:35:36;;;;;;;1.23;0.82;;;;;;;-140.79;100.00;63287.88;4971167;28;20033;-72
2021/03/23 00:38:03;;;;;;;1.40;0.70;;;;;;;-140.79;100.00;63287.88;4989188;28;20041;-72
2021/03/23 00:40:29;;;;;;;1.23;0.90;;;;;;;-140.79;100.00;63287.88;4987754;28;20638;-72
2021/03/23 00:42:55;;;;;;;1.15;0.77;;;;;;;-140.79;100.00;63287.88;4971626;28;20026;-72
2021/03/23 00:45:21;;;;;;;1.40;0.80;;;;;;;-140.79;100.00;63287.88;4991892;28;20411;-72
2021/03/23 00:47:46;;;;;;;1.58;0.90;;;;;;;-140.79;100.00;63287.88;4992751;28;20030;-71
2021/03/23 00:50:12;;;;;;;1.45;0.90;;;;;;;-140.79;100.00;63287.88;4958818;28;20057;-72
2021/03/23 00:52:37;;;;;;;1.77;0.95;;;;;;;-140.79;100.00;63287.88;4992424;28;20033;-72
2021/03/23 00:55:04;;;;;;;1.23;0.73;;;;;;;-140.79;100.00;63287.88;4974763;28;20030;-72
2021/03/23 00:57:30;;;;;;;1.17;0.80;;;;;;;-140.79;100.00;63287.88;4971033;28;20118;-72
2021/03/23 00:59:55;;;;;;;1.20;0.90;;;;;;;-140.79;100.00;63287.88;4983926;28;20526;-72
2021/03/23 01:02:21;;;;;;;1.42;0.73;;;;;;;-140.79;100.00;63287.88;4975085;28;20041;-72
2021/03/23 01:04:46;;;;;;;1.08;0.60;;;;;;;-140.79;100.00;63287.88;4991919;28;20277;-73
2021/03/23 01:07:12;;;;;;;1.02;0.80;;;;;;;-140.79;100.00;63287.88;4992253;28;20026;-72
2021/03/23 01:09:38;;;;;;;1.83;1.02;;;;;;;-140.79;100.00;63287.88;4992166;28;20022;-72
2021/03/23 01:12:05;;;;;;;1.25;0.85;;;;;;;-140.79;100.00;63287.88;4992068;28;20026;-71
2021/03/23 01:14:31;;;;;;;1.33;0.80;;;;;;;-140.79;100.00;63287.88;4974950;28;20033;-71
2021/03/23 01:16:56;;;;;;;1.25;0.80;;;;;;;-140.79;100.00;63287.88;4992148;28;20030;-72
2021/03/23 01:19:22;;;;;;;1.35;0.82;;;;;;;-140.79;100.00;63287.88;4983779;28;20058;-71
2021/03/23 01:21:47;;;;;;;1.08;0.80;;;;;;;-140.79;100.00;63287.88;4955356;28;20035;-71
2021/03/23 01:24:13;;;;;;;1.20;0.70;;;;;;;-140.79;100.00;63287.88;4968864;28;20026;-71
2021/03/23 01:26:38;;;;;;;1.10;0.88;;;;;;;-140.79;100.00;63287.88;4974307;28;20018;-71
2021/03/23 01:29:03;;;;;;;1.40;0.85;;;;;;;-140.79;100.00;63287.88;4991843;28;20108;-71
2021/03/23 01:31:29;;;;;;;1.55;0.80;;;;;;;-140.79;100.00;63287.88;4974544;28;20034;-71
2021/03/23 01:33:54;;;;;;;1.60;0.80;;;;;;;-140.79;100.00;63287.88;4974047;28;20474;-70
2021/03/23 01:36:20;;;;;;;1.48;0.90;;;;;;;-140.79;100.00;63287.88;4991757;28;20034;-72
2021/03/23 01:38:45;;;;;;;1.20;0.80;;;;;;;-140.79;100.00;63287.88;4991597;28;20030;-72
2021/03/23 01:41:11;;;;;;;1.48;0.80;;;;;;;-140.79;100.00;63287.88;4951871;28;20034;-73
2021/03/23 01:43:36;;;;;;;1.30;0.90;;;;;;;-140.79;100.00;63287.88;4972227;28;20054;-72
2021/03/23 01:46:22;;;;;;;1.23;0.82;;;;;;;-140.79;100.00;63287.88;4970525;28;20041;-72
2021/03/23 01:48:48;;;;;;;1.33;0.77;;;;;;;-140.79;100.00;63287.88;4971993;28;20038;-73
2021/03/23 01:51:13;;;;;;;1.20;0.73;;;;;;;-140.79;100.00;63287.88;4954568;28;20070;-72
2021/03/23 01:53:45;;;;;;;1.13;0.80;;;;;;;-140.79;100.00;63287.88;4972433;28;20427;-72
2021/03/23 01:56:12;;;;;;;1.70;0.90;;;;;;;-140.79;100.00;63287.88;4953873;28;20056;-72
2021/03/23 01:58:39;;;;;;;1.42;0.77;;;;;;;-140.79;100.00;63287.88;4970750;28;20037;-72
2021/03/23 02:01:06;;;;;;;1.05;0.80;;;;;;;-140.79;100.00;63287.88;4970484;28;20114;-72
2021/03/23 02:03:31;;;;;;;1.60;0.60;;;;;;;-140.79;100.00;63287.88;4950895;28;20050;-72
2021/03/23 02:05:58;;;;;;;1.17;0.80;;;;;;;-140.79;100.00;63287.88;4952627;28;20024;-72
2021/03/23 02:08:23;;;;;;;1.30;0.73;;;;;;;-140.79;100.00;63287.88;4952466;28;20551;-72
2021/03/23 02:10:50;;;;;;;1.48;0.73;;;;;;;-140.79;100.00;63287.88;4952312;29;20090;-71
2021/03/23 02:13:15;;;;;;;1.10;0.80;;;;;;;-140.79;100.00;63287.88;4966764;28;20043;-72
2021/03/23 02:15:41;;;;;;;1.38;0.90;;;;;;;-140.79;100.00;63287.88;4952226;28;20038;-73
2021/03/23 02:18:25;;;;;;;1.15;0.88;;;;;;;-140.79;100.00;63287.88;4952068;29;20039;-71
2021/03/23 02:21:08;;;;;;;1.35;0.77;;;;;;;-140.79;100.00;63287.88;4968283;28;20090;-71
2021/03/23 02:23:53;;;;;;;1.17;0.88;;;;;;;-140.79;100.00;63287.88;4971394;28;20492;-71
2021/03/23 02:26:23;;;;;;;1.58;0.80;;;;;;;-140.79;100.00;63287.88;4971045;28;20054;-71
2021/03/23 02:28:53;;;;;;;1.15;0.80;;;;;;;-140.79;100.00;63287.88;4971237;28;20042;-71
2021/03/23 02:31:43;;;;;;;1.63;0.90;;;;;;;-140.79;100.00;63287.88;4971129;28;20093;-74
2021/03/23 02:34:11;;;;;;;1.15;0.65;;;;;;;-140.79;100.00;63287.88;4971400;28;20688;-71
2021/03/23 02:36:37;;;;;;;1.55;0.80;;;;;;;-140.79;100.00;63287.88;4969984;28;20122;-70
2021/03/23 02:39:04;;;;;;;0.80;0.63;;;;;;;-140.79;100.00;63287.88;4971078;28;20037;-71
2021/03/23 02:41:30;;;;;;;1.45;0.90;;;;;;;-140.79;100.00;63287.88;4971402;28;20507;-72
2021/03/23 02:43:55;;;;;;;1.60;0.90;;;;;;;-140.79;100.00;63287.88;4970944;28;20030;-71
2021/03/23 02:46:21;;;;;;;1.40;0.85;;;;;;;-140.79;100.00;63287.88;4969417;28;20574;-72
2021/03/23 02:48:46;;;;;;;1.30;0.80;;;;;;;-140.79;100.00;63287.88;4971084;28;20035;-72
2021/03/23 02:51:13;;;;;;;1.40;0.85;;;;;;;-140.79;100.00;63287.88;4969494;28;20031;-71
2021/03/23 02:53:39;;;;;;;1.17;0.80;;;;;;;-140.79;100.00;63287.88;4969705;28;20105;-71
2021/03/23 02:56:04;;;;;;;1.98;1.08;;;;;;;-140.79;100.00;63287.88;4970707;28;20488;-70
2021/03/23 02:58:30;;;;;;;1.20;0.80;;;;;;;-140.79;100.00;63287.88;4970686;28;20033;-72
2021/03/23 03:00:55;;;;;;;1.60;0.90;;;;;;;-140.79;100.00;63287.88;4969421;28;20019;-71
2021/03/23 03:03:21;;;;;;;1.88;1.02;;;;;;;-140.79;100.00;63287.88;4974614;28;20054;-73
2021/03/23 03:05:46;;;;;;;1.73;0.90;;;;;;;-140.79;100.00;63287.88;4972686;28;20516;-71
2021/03/23 03:08:12;;;;;;;1.25;1.00;;;;;;;-140.79;100.00;63287.88;4989854;28;20029;-71
2021/03/23 03:10:37;;;;;;;2.00;0.85;;;;;;;-140.79;100.00;63287.88;4990029;28;20426;-71
2021/03/23 03:13:03;;;;;;;1.50;0.95;;;;;;;-140.79;100.00;63287.88;4989612;28;20033;-69
2021/03/23 03:15:29;;;;;;;2.15;1.05;;;;;;;-140.79;100.00;63287.88;4989900;28;20129;-71
2021/03/23 03:17:55;;;;;;;1.88;1.10;;;;;;;-140.79;100.00;63287.88;4989540;28;20034;-70
2021/03/23 03:20:21;;;;;;;1.02;0.80;;;;;;;-140.79;100.00;63287.88;4989596;28;20053;-72
2021/03/23 03:22:46;;;;;;;1.38;0.82;;;;;;;-140.79;100.00;63287.88;4989719;28;20026;-71
2021/03/23 03:25:12;;;;;;;1.35;0.90;;;;;;;-140.79;100.00;63287.88;4990036;28;20033;-71
2021/03/23 03:27:37;;;;;;;1.42;0.77;;;;;;;-140.79;100.00;63287.88;4977085;28;20126;-71
2021/03/23 03:30:18;;;;;;;1.85;1.00;;;;;;;-140.79;100.00;63287.88;4970251;28;20023;-72
2021/03/23 03:32:44;;;;;;;1.33;1.00;;;;;;;-140.79;100.00;63287.88;4970180;28;20419;-71
2021/03/23 03:35:10;;;;;;;1.55;1.02;;;;;;;-140.79;100.00;63287.88;4987150;28;20109;-72
2021/03/23 03:37:35;;;;;;;1.88;1.17;;;;;;;-140.79;100.00;63287.88;4989428;28;20022;-71
2021/03/23 03:40:01;;;;;;;1.35;0.88;;;;;;;-140.79;100.00;63287.88;4972169;28;20042;-71
2021/03/23 03:42:26;;;;;;;1.92;1.50;;;;;;;-140.79;100.00;63287.88;4989581;28;20053;-72
2021/03/23 03:44:52;;;;;;;1.90;1.10;;;;;;;-140.79;100.00;63287.88;4989432;28;20030;-71
2021/03/23 03:47:17;;;;;;;1.60;1.23;;;;;;;-140.79;100.00;63287.88;4989177;28;20026;-72
2021/03/23 03:49:43;;;;;;;1.38;1.00;;;;;;;-140.79;100.00;63287.88;4988898;28;20026;-73
2021/03/23 03:52:09;;;;;;;1.63;1.10;;;;;;;-140.79;100.00;63287.88;4989326;28;20030;-73
2021/03/23 03:54:34;;;;;;;1.70;1.05;;;;;;;-140.79;100.00;63287.88;4989149;28;20029;-72
2021/03/23 03:57:00;;;;;;;1.60;0.98;;;;;;;-140.79;100.00;63287.88;4971951;28;20041;-73
2021/03/23 03:59:25;;;;;;;2.08;1.25;;;;;;;-140.79;100.00;63287.88;4989260;28;20022;-72
2021/03/23 04:01:51;;;;;;;1.60;1.10;;;;;;;-140.79;100.00;63287.88;4988919;28;20030;-72
2021/03/23 04:04:16;;;;;;;1.92;1.35;;;;;;;-140.79;100.00;63287.88;4989034;28;20105;-72
2021/03/23 04:06:42;;;;;;;1.65;1.17;;;;;;;-140.79;100.00;63287.88;4989262;28;20053;-72
2021/03/23 04:09:07;;;;;;;2.20;1.20;;;;;;;-140.79;100.00;63287.88;4970623;28;20023;-70
2021/03/23 04:11:33;;;;;;;2.15;1.20;;;;;;;-140.79;100.00;63287.88;4953428;28;20031;-72
2021/03/23 04:13:59;;;;;;;2.50;1.58;;;;;;;-140.79;100.00;63287.88;4950669;28;20035;-72
2021/03/23 04:16:24;;;;;;;1.90;1.30;;;;;;;-140.79;100.00;63287.88;4952419;28;20031;-71
2021/03/23 04:18:50;;;;;;;1.77;1.20;;;;;;;-140.79;100.00;63287.88;4970634;28;20030;-71
2021/03/23 04:21:15;;;;;;;1.80;1.25;;;;;;;-140.79;100.00;63287.88;4938240;29;20436;-70
2021/03/23 04:23:41;;;;;;;2.28;1.35;;;;;;;-140.79;100.00;63287.88;4965333;28;20026;-71
2021/03/23 04:26:08;;;;;;;1.80;1.10;;;;;;;-140.79;100.00;63287.88;4973490;28;20508;-71
2021/03/23 04:28:34;;;;;;;2.25;1.10;;;;;;;-140.79;100.00;63287.88;4956550;28;20031;-73
2021/03/23 04:30:59;;;;;;;2.47;1.35;;;;;;;-140.79;100.00;63287.88;4956436;28;20428;-73
2021/03/23 04:33:26;;;;;;;2.05;1.30;;;;;;;-140.79;100.00;63287.88;4973359;28;20035;-74
2021/03/23 04:35:53;;;;;;;2.55;1.40;;;;;;;-140.79;100.00;63287.88;4973307;28;20037;-71
2021/03/23 04:38:30;;;;;;;1.77;1.35;;;;;;;-140.79;100.00;63287.88;4973238;28;20030;-73
2021/03/23 04:40:57;;;;;;;2.65;1.48;;;;;;;-140.79;100.00;63287.88;4973084;28;20035;-71
2021/03/23 04:43:27;;;;;;;2.17;1.42;;;;;;;-140.79;100.00;63287.88;4974426;28;20050;-71
2021/03/23 04:45:53;;;;;;;2.35;1.70;;;;;;;-140.79;100.00;63287.88;4979810;28;20121;-71
2021/03/23 04:48:19;;;;;;;2.78;1.48;;;;;;;-140.79;100.00;63287.88;4987356;28;20033;-71
2021/03/23 04:50:44;;;;;;;2.33;1.20;;;;;;;-140.79;100.00;63287.88;4981150;28;20034;-71
2021/03/23 04:53:29;;;;;;;1.95;1.40;;;;;;;-140.79;100.00;63287.88;4987714;28;20030;-71
2021/03/23 04:55:55;;;;;;;2.75;1.63;;;;;;;-140.79;100.00;63287.88;4982995;28;20027;-71
2021/03/23 04:58:21;;;;;;;2.40;1.30;;;;;;;-140.79;100.00;63287.88;4989235;28;20030;-72
2021/03/23 05:00:46;;;;;;;2.45;1.70;;;;;;;-140.79;100.00;63287.88;4982354;28;20041;-72
2021/03/23 05:03:16;;;;;;;2.88;1.77;;;;;;;-140.79;100.00;63287.88;4968545;28;20073;-72
2021/03/23 05:05:41;;;;;;;2.78;1.90;;;;;;;-140.79;100.00;63287.88;4983285;28;20030;-72
2021/03/23 05:08:07;;;;;;;2.58;1.52;;;;;;;-140.79;100.00;63287.88;4988310;28;20026;-73
2021/03/23 05:10:32;;;;;;;2.85;1.50;;;;;;;-140.79;100.00;63287.88;4986024;28;20023;-71
2021/03/23 05:12:58;;;;;;;2.33;1.60;;;;;;;-140.79;100.00;63287.88;4981918;28;20462;-73
2021/03/23 05:15:23;;;;;;;2.85;1.90;;;;;;;-140.79;100.00;63287.88;4984081;28;20084;-71
2021/03/23 05:17:49;;;;;;;2.38;1.60;;;;;;;-140.79;100.00;63287.88;4983287;28;20082;-71
2021/03/23 05:20:15;;;;;;;2.97;1.90;;;;;;;-140.79;100.00;63287.88;4989537;28;20516;-70
2021/03/23 05:22:40;;;;;;;2.22;1.48;;;;;;;-140.79;100.00;63287.88;4981286;28;20117;-70
2021/03/23 05:25:06;;;;;;;2.30;1.50;;;;;;;-140.79;100.00;63287.88;4982656;28;20081;-72
2021/03/23 05:27:32;;;;;;;2.60;1.60;;;;;;;-140.79;100.00;63287.88;4989140;28;20507;-73
2021/03/23 05:29:57;;;;;;;3.70;2.03;;;;;;;-140.79;100.00;63287.88;4988151;28;20026;-72
2021/03/23 05:32:23;;;;;;;2.33;1.70;;;;;;;-140.79;100.00;63287.88;4977358;28;20026;-74
2021/03/23 05:34:48;;;;;;;3.05;1.90;;;;;;;-140.79;100.00;63287.88;4983676;28;20026;-73
2021/03/23 05:37:13;;;;;;;3.17;1.67;;;;;;;-140.79;100.00;63287.88;4980420;28;20026;-72
2021/03/23 05:39:41;;;;;;;2.60;1.75;;;;;;;-140.79;100.00;63287.88;4983880;28;20018;-73
2021/03/23 05:42:17;;;;;;;4.10;1.90;;;;;;;-140.79;100.00;63287.88;4982442;28;20058;-72
2021/03/23 05:45:03;;;;;;;2.70;1.60;;;;;;;-140.79;100.00;63287.88;4982115;28;20045;-70
2021/03/23 05:47:40;;;;;;;2.10;1.60;;;;;;;-140.79;100.00;63287.88;4951588;28;20030;-75
2021/03/23 05:50:12;;;;;;;2.80;1.80;;;;;;;-140.79;100.00;63287.88;4979708;28;20495;-72
2021/03/23 05:53:06;;;;;;;2.03;1.50;;;;;;;-140.79;100.00;63287.88;4979783;28;20587;-74
2021/03/23 05:55:39;;;;;;;3.22;1.80;;;;;;;-140.79;100.00;63287.88;4964417;28;20030;-77
2021/03/23 05:58:04;;;;;;;2.85;2.05;;;;;;;-140.79;100.00;63287.88;4967760;28;20030;-75
2021/03/23 06:00:35;;;;;;;3.67;2.40;;;;;;;-140.79;100.00;63287.88;4984895;28;20022;-76
2021/03/23 06:03:21;;;;;;;2.30;1.63;;;;;;;-140.79;100.00;63287.88;4966190;28;20083;-75
2021/03/23 06:05:48;;;;;;;2.80;1.73;;;;;;;-140.79;100.00;63287.88;4980731;28;20042;-79
2021/03/23 06:08:30;;;;;;;2.78;1.80;;;;;;;-140.79;100.00;63287.88;4985320;28;20056;-74
2021/03/23 06:11:04;;;;;;;3.03;1.90;;;;;;;-140.79;100.00;63287.88;4986499;28;20054;-74
2021/03/23 06:13:46;;;;;;;2.97;1.83;;;;;;;-140.79;100.00;63287.88;4981201;28;20030;-74
2021/03/23 06:16:19;;;;;;;3.15;2.08;;;;;;;-140.79;100.00;63287.88;4973572;28;20026;-71
2021/03/23 06:19:07;;;;;;;2.42;1.88;;;;;;;-140.79;100.00;63287.88;4982257;28;20109;-71
2021/03/23 06:22:14;;;;;;;3.00;1.77;;;;;;;-140.79;100.00;63287.88;4949172;28;20046;-71
2021/03/23 06:24:45;;;;;;;3.17;1.85;;;;;;;-140.79;100.00;63287.88;4916689;29;20031;-71
2021/03/23 06:27:45;;;;;;;4.22;2.75;;;;;;;-140.79;100.00;63287.88;4912562;29;20039;-71
2021/03/23 06:30:21;;;;;;;10.45;3.33;;;;;;;-140.79;100.00;63287.88;4942077;28;20031;-71
2021/03/23 06:32:48;;;;;;;3.55;2.17;;;;;;;-140.79;100.00;63287.88;4966959;28;20605;-70
2021/03/23 06:35:16;;;;;;;3.42;1.92;;;;;;;-140.79;100.00;63287.88;4970721;28;20027;-72
2021/03/23 06:37:41;;;;;;;5.32;3.05;;;;;;;-140.79;100.00;63287.88;4968007;28;20030;-75
2021/03/23 06:40:14;;;;;;;4.53;2.30;;;;;;;-140.79;100.00;63287.88;4982546;28;20022;-74
2021/03/23 06:42:42;;;;;;;2.90;1.95;;;;;;;-140.79;100.00;63287.88;4980525;28;20041;-73
2021/03/23 06:45:21;;;;;;;3.28;2.05;;;;;;;-140.79;100.00;63287.88;4984878;28;20474;-71
2021/03/23 06:47:47;;;;;;;2.97;2.40;;;;;;;-140.79;100.00;63287.88;4984025;28;20467;-73
2021/03/23 06:50:21;;;;;;;2.90;2.00;;;;;;;-140.79;100.00;63287.88;4966907;28;20073;-72
2021/03/23 06:53:22;;;;;;;2.75;1.83;;;;;;;-140.79;100.00;63287.88;4980263;28;20030;-72
2021/03/23 06:55:49;;;;;;;2.60;1.80;;;;;;;-140.79;100.00;63287.88;4982431;28;20048;-72
2021/03/23 06:58:23;;;;;;;4.15;2.00;;;;;;;-140.79;100.00;63287.88;4950857;28;20865;-72
2021/03/23 07:01:08;;;;;;;2.65;1.90;;;;;;;-140.79;100.00;63287.88;4973821;28;20612;-72
2021/03/23 07:03:34;;;;;;;3.30;2.30;;;;;;;-140.79;100.00;63287.88;4961859;28;20043;-72
2021/03/23 07:05:59;;;;;;;2.72;1.98;;;;;;;-140.79;100.00;63287.88;4946917;28;20031;-71
2021/03/23 07:08:25;;;;;;;2.78;2.00;;;;;;;-140.79;100.00;63287.88;4947750;28;20019;-73
2021/03/23 07:10:54;;;;;;;2.80;2.10;;;;;;;-140.79;100.00;63287.88;4947385;28;20035;-77
2021/03/23 07:13:25;;;;;;;2.90;2.00;;;;;;;-140.79;100.00;63287.88;4877974;28;20181;-74
2021/03/23 07:16:09;;;;;;;2.95;2.00;;;;;;;-140.79;100.00;63287.88;4941629;28;20070;-75
2021/03/23 07:18:36;;;;;;;4.70;3.38;;;;;;;-140.79;100.00;63287.88;4950358;28;20031;-76
2021/03/23 07:21:04;;;;;;;3.58;2.60;;;;;;;-140.79;100.00;63287.88;4930731;28;20077;-74
2021/03/23 07:23:43;;;;;;;5.30;2.20;;;;;;;-140.79;100.00;63287.88;4949087;28;20025;-72
2021/03/23 07:26:20;;;;;;;2.95;1.88;;;;;;;-140.79;100.00;63287.88;4946751;28;20039;-72
2021/03/23 07:28:46;;;;;;;3.83;1.80;;;;;;;-140.79;100.00;63287.88;4959269;28;20031;-73
2021/03/23 07:31:34;;;;;;;2.97;2.00;;;;;;;-140.79;100.00;63287.88;4976952;28;20027;-73
2021/03/23 07:34:18;;;;;;;2.97;2.00;;;;;;;-140.79;100.00;63287.88;4943293;28;20625;-71
2021/03/23 07:37:02;;;;;;;2.95;2.08;;;;;;;-140.79;100.00;63287.88;4957974;28;20587;-71
2021/03/23 07:39:36;;;;;;;3.53;1.80;;;;;;;-140.79;100.00;63287.88;4981684;28;20121;-71
2021/03/23 07:42:28;;;;;;;2.95;1.85;;;;;;;-140.79;100.00;63287.88;4971081;28;20034;-72
2021/03/23 07:44:55;;;;;;;2.95;1.90;;;;;;;-140.79;100.00;63287.88;4962679;28;20035;-73
2021/03/23 07:47:36;;;;;;;3.30;2.00;;;;;;;-140.79;100.00;63287.88;4974566;28;20566;-71
2021/03/23 07:50:18;;;;;;;2.70;2.03;;;;;;;-140.79;100.00;63287.88;4979915;28;20057;-74
2021/03/23 07:53:02;;;;;;;3.03;1.90;;;;;;;-140.79;100.00;63287.88;4973424;28;20043;-73
2021/03/23 07:55:28;;;;;;;2.88;2.00;;;;;;;-140.79;100.00;63287.88;4960607;28;20081;-73
2021/03/23 07:58:35;;;;;;;3.50;2.10;;;;;;;-140.79;100.00;63287.88;4962323;28;20019;-73
2021/03/23 08:01:18;;;;;;;5.22;3.05;;;;;;;-140.79;100.00;63287.88;4977106;28;20061;-72
2021/03/23 08:04:04;;;;;;;3.38;2.15;;;;;;;-140.79;100.00;63287.88;4972922;28;20120;-71
2021/03/23 08:06:42;;;;;;;3.30;1.73;;;;;;;-140.79;100.00;63287.88;4972463;28;20093;-71
2021/03/23 08:09:33;;;;;;;3.08;2.17;;;;;;;-140.79;100.00;63287.88;4957787;28;20097;-70
2021/03/23 08:12:17;;;;;;;2.92;1.88;;;;;;;-140.79;100.00;63287.88;4975589;28;20029;-72
2021/03/23 08:15:02;;;;;;;3.50;2.17;;;;;;;-140.79;100.00;63287.88;4975451;28;20027;-72
2021/03/23 08:17:47;;;;;;;3.20;1.80;;;;;;;-140.79;100.00;63287.88;4966472;28;20025;-71
2021/03/23 08:20:39;;;;;;;3.60;1.85;;;;;;;-140.79;100.00;63287.88;4979294;28;20507;-71
2021/03/23 08:23:26;;;;;;;3.47;1.80;;;;;;;-140.79;100.00;63287.88;4980217;28;20034;-72
2021/03/23 08:25:58;;;;;;;3.03;1.80;;;;;;;-140.79;100.00;63287.88;4973409;28;20031;-72
2021/03/23 08:28:48;;;;;;;5.05;2.25;;;;;;;-140.79;100.00;63287.88;4954817;28;20035;-72
2021/03/23 08:31:34;;;;;;;2.72;2.00;;;;;;;-140.79;100.00;63287.88;4958548;28;20034;-70
2021/03/23 08:34:28;;;;;;;2.20;1.52;;;;;;;-140.79;100.00;63287.88;4982276;28;20042;-72
2021/03/23 08:37:14;;;;;;;2.78;1.92;;;;;;;-140.79;100.00;63287.88;4976274;28;20026;-71
2021/03/23 08:40:18;;;;;;;3.45;1.90;;;;;;;-140.79;100.00;63287.88;4980515;28;20030;-71
2021/03/23 08:42:45;;;;;;;2.67;2.10;;;;;;;-140.79;100.00;63287.88;4960565;28;20046;-71
2021/03/23 08:45:23;;;;;;;4.30;1.83;;;;;;;-140.79;100.00;63287.88;4976660;28;20034;-71
2021/03/23 08:48:20;;;;;;;2.75;1.80;;;;;;;-140.79;100.00;63287.88;4955329;28;20543;-71
2021/03/23 08:50:46;;;;;;;3.08;2.00;;;;;;;-140.79;100.00;63287.88;4982690;28;20035;-69
2021/03/23 08:53:34;;;;;;;3.60;2.28;;;;;;;-140.79;100.00;63287.88;4968858;28;20514;-73
2021/03/23 08:56:04;;;;;;;7.88;2.35;;;;;;;-140.79;100.00;63287.88;4982761;28;20518;-70
2021/03/23 08:58:44;;;;;;;3.38;1.88;;;;;;;-140.79;100.00;63287.88;4982857;28;20022;-70
2021/03/23 09:01:31;;;;;;;3.50;1.60;;;;;;;-140.79;100.00;63287.88;4976320;28;20540;-71
2021/03/23 09:04:23;;;;;;;2.42;1.60;;;;;;;-140.79;100.00;63287.88;4980362;28;20108;-70
2021/03/23 09:06:53;;;;;;;2.90;1.90;;;;;;;-140.79;100.00;63287.88;4958312;28;20787;-71
2021/03/23 09:09:21;;;;;;;2.95;2.22;;;;;;;-140.79;100.00;63287.88;4982387;28;20023;-71
2021/03/23 09:11:46;;;;;;;2.83;1.85;;;;;;;-140.79;100.00;63287.88;4978587;28;20051;-71
2021/03/23 09:14:17;;;;;;;2.88;1.88;;;;;;;-140.79;100.00;63287.88;4985731;28;20018;-71
2021/03/23 09:16:47;;;;;;;3.10;2.20;;;;;;;-140.79;100.00;63287.88;4983823;28;20544;-71
2021/03/23 09:19:32;;;;;;;2.55;1.73;;;;;;;-140.79;100.00;63287.88;4987330;28;20022;-71
2021/03/23 09:21:58;;;;;;;3.35;2.00;;;;;;;-140.79;100.00;63287.88;4980777;28;20571;-71
2021/03/23 09:24:37;;;;;;;2.60;1.92;;;;;;;-140.79;100.00;63287.88;4986433;28;20023;-71
2021/03/23 09:27:23;;;;;;;2.50;2.10;;;;;;;-140.79;100.00;63287.88;4964443;28;20415;-71
2021/03/23 09:29:50;;;;;;;2.55;2.10;;;;;;;-140.79;100.00;63287.88;4982740;28;20028;-70
2021/03/23 09:32:16;;;;;;;3.53;2.20;;;;;;;-140.79;100.00;63287.88;4965777;28;20030;-72
2021/03/23 09:35:05;;;;;;;2.85;2.08;;;;;;;-140.79;100.00;63287.88;4984090;28;20039;-72
2021/03/23 09:37:33;;;;;;;2.92;1.90;;;;;;;-140.79;100.00;63287.88;4979716;28;20022;-70
2021/03/23 09:39:58;;;;;;;3.17;1.77;;;;;;;-140.79;100.00;63287.88;4951255;28;20031;-71
2021/03/23 09:42:26;;;;;;;2.45;1.90;;;;;;;-140.79;100.00;63287.88;4979714;28;20037;-70
2021/03/23 09:45:02;;;;;;;2.80;1.65;;;;;;;-140.79;100.00;63287.88;4961257;28;20072;-70
2021/03/23 09:47:39;;;;;;;3.50;2.15;;;;;;;-140.79;100.00;63287.88;4979842;28;20034;-70
2021/03/23 09:50:17;;;;;;;3.63;2.58;;;;;;;-140.79;100.00;63287.88;4986288;28;20042;-70
2021/03/23 09:52:43;;;;;;;2.90;2.00;;;;;;;-140.79;100.00;63287.88;4969693;28;20113;-70
2021/03/23 09:55:08;;;;;;;3.13;1.70;;;;;;;-140.79;100.00;63287.88;4965689;28;20030;-71
2021/03/23 09:57:34;;;;;;;2.88;1.95;;;;;;;-140.79;100.00;63287.88;4981237;28;20026;-71
2021/03/23 10:00:00;;;;;;;3.30;1.92;;;;;;;-140.79;100.00;63287.88;4979321;28;20026;-71
2021/03/23 10:02:33;;;;;;;3.05;2.35;;;;;;;-140.79;100.00;63287.88;4956574;28;20037;-71
2021/03/23 10:05:20;;;;;;;2.75;1.83;;;;;;;-140.79;100.00;63287.88;4983988;28;20523;-74
2021/03/23 10:07:49;;;;;;;3.55;2.00;;;;;;;-140.79;100.00;63287.88;4979056;28;20039;-70
2021/03/23 10:10:32;;;;;;;2.05;1.52;;;;;;;-140.79;100.00;63287.88;4983467;28;20106;-71
2021/03/23 10:12:59;;;;;;;2.90;1.98;;;;;;;-140.79;100.00;63287.88;4982931;28;20042;-71
2021/03/23 10:15:35;;;;;;;2.90;1.90;;;;;;;-140.79;100.00;63287.88;4982630;28;20026;-70
2021/03/23 10:18:12;;;;;;;2.65;1.90;;;;;;;-140.79;100.00;63287.88;4965561;28;20230;-69
2021/03/23 10:20:38;;;;;;;3.20;2.00;;;;;;;-140.79;100.00;63287.88;4960422;28;20298;-71
2021/03/23 10:23:04;;;;;;;2.75;1.73;;;;;;;-140.79;100.00;63287.88;4953106;28;20098;-72
2021/03/23 10:25:29;;;;;;;2.78;1.80;;;;;;;-140.79;100.00;63287.88;4953353;28;20303;-72
2021/03/23 10:28:02;;;;;;;3.63;1.98;;;;;;;-140.79;100.00;63287.88;4954645;28;20027;-73
2021/03/23 10:30:27;;;;;;;2.17;1.67;;;;;;;-140.79;100.00;63287.88;4965026;28;20031;-74
2021/03/23 10:32:54;;;;;;;3.20;1.67;;;;;;;-140.79;100.00;63287.88;4970735;28;20042;-73
2021/03/23 10:35:29;;;;;;;2.05;1.30;;;;;;;-140.79;100.00;63287.88;4934103;28;20027;-73
2021/03/23 10:38:13;;;;;;;2.97;1.70;;;;;;;-140.79;100.00;63287.88;4967947;28;20046;-72
2021/03/23 10:40:39;;;;;;;4.03;1.70;;;;;;;-140.79;100.00;63287.88;4982637;28;20049;-74
2021/03/23 10:43:04;;;;;;;2.40;1.70;;;;;;;-140.79;100.00;63287.88;4968759;28;20109;-71
2021/03/23 10:45:35;;;;;;;2.47;1.50;;;;;;;-140.79;100.00;63287.88;4975035;28;20057;-73
2021/03/23 10:48:17;;;;;;;2.78;1.40;;;;;;;-140.79;100.00;63287.88;4976754;28;20034;-73
2021/03/23 10:50:44;;;;;;;3.22;1.60;;;;;;;-140.79;100.00;63287.88;4985979;28;20018;-72
2021/03/23 10:53:13;;;;;;;3.17;1.65;;;;;;;-140.79;100.00;63287.88;4976638;28;20137;-75
2021/03/23 10:55:41;;;;;;;2.92;2.05;;;;;;;-140.79;100.00;63287.88;4987749;28;20030;-74
2021/03/23 10:58:24;;;;;;;3.80;1.80;;;;;;;-140.79;100.00;63287.88;4981320;28;20056;-74
2021/03/23 11:01:09;;;;;;;3.35;1.90;;;;;;;-140.79;100.00;63287.88;4983371;28;20027;-71
2021/03/23 11:03:34;;;;;;;2.58;1.55;;;;;;;-140.79;100.00;63287.88;4977966;28;20447;-72
2021/03/23 11:06:01;;;;;;;2.70;1.80;;;;;;;-140.79;100.00;63287.88;4986407;28;20034;-70
2021/03/23 11:08:26;;;;;;;3.15;2.10;;;;;;;-140.79;100.00;63287.88;4965051;28;20030;-74
2021/03/23 11:10:55;;;;;;;2.80;1.73;;;;;;;-140.79;100.00;63287.88;4982751;28;20502;-72
2021/03/23 11:13:20;;;;;;;2.63;1.70;;;;;;;-140.79;100.00;63287.88;4968971;28;20070;-71
2021/03/23 11:15:48;;;;;;;2.83;1.58;;;;;;;-140.79;100.00;63287.88;4987214;28;20029;-72
2021/03/23 11:18:29;;;;;;;3.42;2.05;;;;;;;-140.79;100.00;63287.88;4980219;28;20040;-72
2021/03/23 11:20:54;;;;;;;2.40;1.60;;;;;;;-140.79;100.00;63287.88;4986215;28;20475;-74
2021/03/23 11:23:32;;;;;;;2.25;1.52;;;;;;;-140.79;100.00;63287.88;4971244;28;20029;-76
2021/03/23 11:25:58;;;;;;;3.05;1.80;;;;;;;-140.79;100.00;63287.88;4950549;28;20054;-71
2021/03/23 11:28:23;;;;;;;2.80;2.10;;;;;;;-140.79;100.00;63287.88;4966970;28;20033;-74